sensor_id;sensor_type;location;lat;lon;timestamp;P1;durP1;ratioP1;P2;durP2;ratioP2
50733;SDS011;36701;51.798;19.474;2023-04-09T02:01:31;12.57;;;6.85;;
50733;SDS011;36701;51.798;19.474;2023-04-09T02:03:59;13.57;;;7.75;;
50733;SDS011;36701;51.798;19.474;2023-04-09T02:06:39;10.40;;;6.80;;
50733;SDS011;36701;51.798;19.474;2023-04-09T02:09:08;16.83;;;7.93;;
50733;SDS011;36701;51.798;19.474;2023-04-09T02:11:38;14.77;;;7.25;;
50733;SDS011;36701;51.798;19.474;2023-04-09T02:14:05;15.70;;;8.00;;
50733;SDS011;36701;51.798;19.474;2023-04-09T02:16:33;10.52;;;6.75;;
50733;SDS011;36701;51.798;19.474;2023-04-09T02:19:01;16.10;;;7.53;;
50733;SDS011;36701;51.798;19.474;2023-04-09T02:21:27;13.85;;;6.72;;
50733;SDS011;36701;51.798;19.474;2023-04-09T02:23:54;16.83;;;7.28;;
50733;SDS011;36701;51.798;19.474;2023-04-09T02:26:21;15.43;;;8.23;;
50733;SDS011;36701;51.798;19.474;2023-04-09T02:28:47;20.15;;;10.18;;
50733;SDS011;36701;51.798;19.474;2023-04-09T02:31:13;22.73;;;11.40;;
50733;SDS011;36701;51.798;19.474;2023-04-09T02:33:39;22.10;;;11.35;;
50733;SDS011;36701;51.798;19.474;2023-04-09T02:36:06;20.50;;;11.20;;
50733;SDS011;36701;51.798;19.474;2023-04-09T02:38:32;18.62;;;10.13;;
50733;SDS011;36701;51.798;19.474;2023-04-09T02:40:58;22.15;;;11.77;;
50733;SDS011;36701;51.798;19.474;2023-04-09T02:43:24;19.92;;;10.70;;
50733;SDS011;36701;51.798;19.474;2023-04-09T02:45:50;16.48;;;8.85;;
50733;SDS011;36701;51.798;19.474;2023-04-09T02:48:16;18.75;;;10.00;;
50733;SDS011;36701;51.798;19.474;2023-04-09T02:50:43;19.30;;;10.65;;
50733;SDS011;36701;51.798;19.474;2023-04-09T02:53:09;19.30;;;11.55;;
50733;SDS011;36701;51.798;19.474;2023-04-09T02:55:35;18.33;;;10.60;;
50733;SDS011;36701;51.798;19.474;2023-04-09T02:58:02;19.83;;;11.27;;
50733;SDS011;36701;51.798;19.474;2023-04-09T03:00:28;19.95;;;12.23;;
50733;SDS011;36701;51.798;19.474;2023-04-09T03:02:55;26.42;;;12.50;;
50733;SDS011;36701;51.798;19.474;2023-04-09T03:05:21;20.52;;;11.65;;
50733;SDS011;36701;51.798;19.474;2023-04-09T03:07:47;22.30;;;11.95;;
50733;SDS011;36701;51.798;19.474;2023-04-09T03:10:14;20.75;;;12.98;;
50733;SDS011;36701;51.798;19.474;2023-04-09T03:12:40;22.40;;;11.70;;
50733;SDS011;36701;51.798;19.474;2023-04-09T03:15:09;19.60;;;12.02;;
50733;SDS011;36701;51.798;19.474;2023-04-09T03:17:36;25.17;;;11.25;;
50733;SDS011;36701;51.798;19.474;2023-04-09T03:20:01;20.25;;;10.90;;
50733;SDS011;36701;51.798;19.474;2023-04-09T03:22:36;20.95;;;11.18;;
50733;SDS011;36701;51.798;19.474;2023-04-09T03:25:03;24.55;;;11.85;;
50733;SDS011;36701;51.798;19.474;2023-04-09T03:27:30;18.15;;;10.15;;
50733;SDS011;36701;51.798;19.474;2023-04-09T03:29:57;26.27;;;12.55;;
50733;SDS011;36701;51.798;19.474;2023-04-09T03:32:23;19.17;;;11.65;;
50733;SDS011;36701;51.798;19.474;2023-04-09T03:34:50;27.20;;;11.30;;
50733;SDS011;36701;51.798;19.474;2023-04-09T03:37:19;26.33;;;11.63;;
50733;SDS011;36701;51.798;19.474;2023-04-09T03:39:45;24.85;;;13.15;;
50733;SDS011;36701;51.798;19.474;2023-04-09T03:42:12;24.37;;;12.75;;
50733;SDS011;36701;51.798;19.474;2023-04-09T03:44:38;20.95;;;11.02;;
50733;SDS011;36701;51.798;19.474;2023-04-09T03:47:06;20.30;;;11.50;;
50733;SDS011;36701;51.798;19.474;2023-04-09T03:49:35;23.10;;;11.10;;
50733;SDS011;36701;51.798;19.474;2023-04-09T03:52:02;15.75;;;9.95;;
50733;SDS011;36701;51.798;19.474;2023-04-09T03:54:31;20.25;;;11.30;;
50733;SDS011;36701;51.798;19.474;2023-04-09T03:56:58;20.37;;;10.38;;
50733;SDS011;36701;51.798;19.474;2023-04-09T03:59:25;21.10;;;10.23;;
50733;SDS011;36701;51.798;19.474;2023-04-09T04:01:51;19.12;;;10.65;;
50733;SDS011;36701;51.798;19.474;2023-04-09T04:04:18;21.17;;;11.57;;
50733;SDS011;36701;51.798;19.474;2023-04-09T04:06:45;21.55;;;12.23;;
50733;SDS011;36701;51.798;19.474;2023-04-09T04:09:11;22.77;;;12.18;;
50733;SDS011;36701;51.798;19.474;2023-04-09T04:11:39;23.02;;;12.37;;
50733;SDS011;36701;51.798;19.474;2023-04-09T04:14:05;26.73;;;13.20;;
50733;SDS011;36701;51.798;19.474;2023-04-09T04:16:32;25.45;;;12.93;;
50733;SDS011;36701;51.798;19.474;2023-04-09T04:18:59;28.25;;;12.85;;
50733;SDS011;36701;51.798;19.474;2023-04-09T04:21:26;25.30;;;13.65;;
50733;SDS011;36701;51.798;19.474;2023-04-09T04:23:53;23.87;;;13.75;;
50733;SDS011;36701;51.798;19.474;2023-04-09T04:26:19;20.12;;;12.40;;
50733;SDS011;36701;51.798;19.474;2023-04-09T04:28:52;24.42;;;13.40;;
50733;SDS011;36701;51.798;19.474;2023-04-09T04:31:21;24.12;;;12.43;;
50733;SDS011;36701;51.798;19.474;2023-04-09T04:33:48;22.62;;;12.68;;
50733;SDS011;36701;51.798;19.474;2023-04-09T04:36:14;21.80;;;11.38;;
50733;SDS011;36701;51.798;19.474;2023-04-09T04:38:40;21.95;;;12.15;;
50733;SDS011;36701;51.798;19.474;2023-04-09T04:41:09;19.60;;;11.57;;
50733;SDS011;36701;51.798;19.474;2023-04-09T04:43:36;21.92;;;11.85;;
50733;SDS011;36701;51.798;19.474;2023-04-09T04:46:02;21.77;;;12.15;;
50733;SDS011;36701;51.798;19.474;2023-04-09T04:48:28;23.90;;;12.50;;
50733;SDS011;36701;51.798;19.474;2023-04-09T04:50:56;21.02;;;11.55;;
50733;SDS011;36701;51.798;19.474;2023-04-09T04:53:23;25.48;;;12.85;;
50733;SDS011;36701;51.798;19.474;2023-04-09T04:55:50;27.58;;;12.50;;
50733;SDS011;36701;51.798;19.474;2023-04-09T04:58:17;25.83;;;13.80;;
50733;SDS011;36701;51.798;19.474;2023-04-09T05:00:44;24.02;;;13.35;;
50733;SDS011;36701;51.798;19.474;2023-04-09T05:03:10;26.40;;;14.63;;
50733;SDS011;36701;51.798;19.474;2023-04-09T05:05:37;29.67;;;15.13;;
50733;SDS011;36701;51.798;19.474;2023-04-09T05:08:03;31.08;;;15.50;;
50733;SDS011;36701;51.798;19.474;2023-04-09T05:10:30;27.90;;;15.30;;
50733;SDS011;36701;51.798;19.474;2023-04-09T05:12:56;29.17;;;14.93;;
50733;SDS011;36701;51.798;19.474;2023-04-09T05:15:23;30.37;;;15.93;;
50733;SDS011;36701;51.798;19.474;2023-04-09T05:17:49;27.40;;;14.70;;
50733;SDS011;36701;51.798;19.474;2023-04-09T05:20:20;31.40;;;15.80;;
50733;SDS011;36701;51.798;19.474;2023-04-09T05:22:47;32.72;;;16.85;;
50733;SDS011;36701;51.798;19.474;2023-04-09T05:25:15;26.73;;;14.73;;
50733;SDS011;36701;51.798;19.474;2023-04-09T05:27:42;35.00;;;17.15;;
50733;SDS011;36701;51.798;19.474;2023-04-09T05:30:09;38.60;;;18.60;;
50733;SDS011;36701;51.798;19.474;2023-04-09T05:32:35;32.53;;;17.33;;
50733;SDS011;36701;51.798;19.474;2023-04-09T05:35:03;34.50;;;18.50;;
50733;SDS011;36701;51.798;19.474;2023-04-09T05:37:30;33.15;;;18.37;;
50733;SDS011;36701;51.798;19.474;2023-04-09T05:39:56;34.80;;;19.33;;
50733;SDS011;36701;51.798;19.474;2023-04-09T05:42:23;39.72;;;19.77;;
50733;SDS011;36701;51.798;19.474;2023-04-09T05:44:50;38.72;;;18.50;;
50733;SDS011;36701;51.798;19.474;2023-04-09T05:47:17;40.95;;;19.17;;
50733;SDS011;36701;51.798;19.474;2023-04-09T05:49:44;43.03;;;19.73;;
50733;SDS011;36701;51.798;19.474;2023-04-09T05:52:11;42.80;;;21.90;;
50733;SDS011;36701;51.798;19.474;2023-04-09T05:54:37;40.97;;;20.85;;
50733;SDS011;36701;51.798;19.474;2023-04-09T05:57:04;43.30;;;19.85;;
50733;SDS011;36701;51.798;19.474;2023-04-09T05:59:34;41.10;;;22.55;;
50733;SDS011;36701;51.798;19.474;2023-04-09T06:02:00;37.83;;;19.40;;
50733;SDS011;36701;51.798;19.474;2023-04-09T06:04:27;42.30;;;20.65;;
50733;SDS011;36701;51.798;19.474;2023-04-09T06:06:53;37.42;;;19.60;;
50733;SDS011;36701;51.798;19.474;2023-04-09T06:09:20;37.85;;;19.67;;
50733;SDS011;36701;51.798;19.474;2023-04-09T06:11:46;40.00;;;21.15;;
50733;SDS011;36701;51.798;19.474;2023-04-09T06:14:13;40.95;;;21.80;;
50733;SDS011;36701;51.798;19.474;2023-04-09T06:16:42;39.35;;;21.25;;
50733;SDS011;36701;51.798;19.474;2023-04-09T06:19:09;41.40;;;20.67;;
50733;SDS011;36701;51.798;19.474;2023-04-09T06:21:37;44.42;;;21.33;;
50733;SDS011;36701;51.798;19.474;2023-04-09T06:24:03;41.25;;;21.80;;
50733;SDS011;36701;51.798;19.474;2023-04-09T06:26:29;39.22;;;21.10;;
50733;SDS011;36701;51.798;19.474;2023-04-09T06:28:55;41.55;;;20.58;;
50733;SDS011;36701;51.798;19.474;2023-04-09T06:31:21;33.15;;;18.67;;
50733;SDS011;36701;51.798;19.474;2023-04-09T06:33:48;41.30;;;20.90;;
50733;SDS011;36701;51.798;19.474;2023-04-09T06:36:14;39.45;;;20.23;;
50733;SDS011;36701;51.798;19.474;2023-04-09T06:38:40;43.47;;;23.23;;
50733;SDS011;36701;51.798;19.474;2023-04-09T06:41:06;42.75;;;22.80;;
50733;SDS011;36701;51.798;19.474;2023-04-09T06:43:33;43.42;;;23.73;;
50733;SDS011;36701;51.798;19.474;2023-04-09T06:46:01;45.72;;;24.55;;
50733;SDS011;36701;51.798;19.474;2023-04-09T06:48:28;49.65;;;23.95;;
50733;SDS011;36701;51.798;19.474;2023-04-09T06:50:53;47.00;;;24.12;;
50733;SDS011;36701;51.798;19.474;2023-04-09T06:53:20;43.42;;;21.42;;
50733;SDS011;36701;51.798;19.474;2023-04-09T06:55:46;38.90;;;19.33;;
50733;SDS011;36701;51.798;19.474;2023-04-09T06:58:12;31.37;;;17.45;;
50733;SDS011;36701;51.798;19.474;2023-04-09T07:00:38;34.47;;;19.10;;
50733;SDS011;36701;51.798;19.474;2023-04-09T07:03:05;41.17;;;21.08;;
50733;SDS011;36701;51.798;19.474;2023-04-09T07:05:33;34.05;;;17.65;;
50733;SDS011;36701;51.798;19.474;2023-04-09T07:08:01;37.47;;;19.25;;
50733;SDS011;36701;51.798;19.474;2023-04-09T07:10:27;38.63;;;19.40;;
50733;SDS011;36701;51.798;19.474;2023-04-09T07:12:53;39.20;;;18.52;;
50733;SDS011;36701;51.798;19.474;2023-04-09T07:15:19;32.78;;;17.77;;
50733;SDS011;36701;51.798;19.474;2023-04-09T07:17:46;35.72;;;18.23;;
50733;SDS011;36701;51.798;19.474;2023-04-09T07:20:12;40.97;;;19.20;;
50733;SDS011;36701;51.798;19.474;2023-04-09T07:22:38;45.33;;;21.50;;
50733;SDS011;36701;51.798;19.474;2023-04-09T07:25:04;35.53;;;18.27;;
50733;SDS011;36701;51.798;19.474;2023-04-09T07:27:31;35.03;;;19.62;;
50733;SDS011;36701;51.798;19.474;2023-04-09T07:29:57;38.08;;;18.73;;
50733;SDS011;36701;51.798;19.474;2023-04-09T07:32:24;36.03;;;19.23;;
50733;SDS011;36701;51.798;19.474;2023-04-09T07:34:51;33.97;;;18.25;;
50733;SDS011;36701;51.798;19.474;2023-04-09T07:37:18;34.53;;;17.75;;
50733;SDS011;36701;51.798;19.474;2023-04-09T07:39:45;33.80;;;17.77;;
50733;SDS011;36701;51.798;19.474;2023-04-09T07:42:12;35.67;;;17.25;;
50733;SDS011;36701;51.798;19.474;2023-04-09T07:44:38;29.83;;;16.40;;
50733;SDS011;36701;51.798;19.474;2023-04-09T07:47:06;35.72;;;17.70;;
50733;SDS011;36701;51.798;19.474;2023-04-09T07:49:32;29.25;;;17.10;;
50733;SDS011;36701;51.798;19.474;2023-04-09T07:51:58;32.67;;;18.15;;
50733;SDS011;36701;51.798;19.474;2023-04-09T07:54:25;32.00;;;18.55;;
50733;SDS011;36701;51.798;19.474;2023-04-09T07:56:52;34.63;;;19.05;;
50733;SDS011;36701;51.798;19.474;2023-04-09T07:59:17;32.22;;;17.42;;
50733;SDS011;36701;51.798;19.474;2023-04-09T08:01:44;34.38;;;19.05;;
50733;SDS011;36701;51.798;19.474;2023-04-09T08:04:10;30.83;;;17.25;;
50733;SDS011;36701;51.798;19.474;2023-04-09T08:06:38;32.35;;;16.30;;
50733;SDS011;36701;51.798;19.474;2023-04-09T08:09:03;28.05;;;15.18;;
50733;SDS011;36701;51.798;19.474;2023-04-09T08:11:30;29.48;;;15.18;;
50733;SDS011;36701;51.798;19.474;2023-04-09T08:13:56;27.98;;;15.80;;
50733;SDS011;36701;51.798;19.474;2023-04-09T08:16:23;25.50;;;13.88;;
50733;SDS011;36701;51.798;19.474;2023-04-09T08:18:49;29.10;;;15.75;;
50733;SDS011;36701;51.798;19.474;2023-04-09T08:21:16;24.65;;;14.75;;
50733;SDS011;36701;51.798;19.474;2023-04-09T08:23:42;24.58;;;14.45;;
50733;SDS011;36701;51.798;19.474;2023-04-09T08:26:09;23.23;;;14.00;;
50733;SDS011;36701;51.798;19.474;2023-04-09T08:28:35;24.50;;;14.73;;
50733;SDS011;36701;51.798;19.474;2023-04-09T08:31:01;25.02;;;14.10;;
50733;SDS011;36701;51.798;19.474;2023-04-09T08:33:27;29.48;;;16.92;;
50733;SDS011;36701;51.798;19.474;2023-04-09T08:35:54;30.83;;;14.93;;
50733;SDS011;36701;51.798;19.474;2023-04-09T08:38:19;28.67;;;15.68;;
50733;SDS011;36701;51.798;19.474;2023-04-09T08:40:46;20.73;;;13.48;;
50733;SDS011;36701;51.798;19.474;2023-04-09T08:43:15;22.70;;;12.30;;
50733;SDS011;36701;51.798;19.474;2023-04-09T08:45:41;22.17;;;12.73;;
50733;SDS011;36701;51.798;19.474;2023-04-09T08:48:12;21.02;;;12.25;;
50733;SDS011;36701;51.798;19.474;2023-04-09T08:50:38;20.23;;;10.65;;
50733;SDS011;36701;51.798;19.474;2023-04-09T08:53:05;27.80;;;13.73;;
50733;SDS011;36701;51.798;19.474;2023-04-09T08:55:33;26.40;;;13.82;;
50733;SDS011;36701;51.798;19.474;2023-04-09T08:57:59;23.98;;;12.98;;
50733;SDS011;36701;51.798;19.474;2023-04-09T09:00:26;26.65;;;13.25;;
50733;SDS011;36701;51.798;19.474;2023-04-09T09:06:01;18.77;;;11.10;;
50733;SDS011;36701;51.798;19.474;2023-04-09T09:08:23;20.40;;;11.70;;
50733;SDS011;36701;51.798;19.474;2023-04-09T09:10:50;20.55;;;11.23;;
50733;SDS011;36701;51.798;19.474;2023-04-09T09:13:25;22.75;;;12.25;;
50733;SDS011;36701;51.798;19.474;2023-04-09T09:15:53;23.45;;;11.40;;
50733;SDS011;36701;51.798;19.474;2023-04-09T09:18:36;19.80;;;11.98;;
50733;SDS011;36701;51.798;19.474;2023-04-09T09:21:13;21.00;;;12.35;;
50733;SDS011;36701;51.798;19.474;2023-04-09T09:23:39;19.15;;;11.45;;
50733;SDS011;36701;51.798;19.474;2023-04-09T09:26:19;23.40;;;13.27;;
50733;SDS011;36701;51.798;19.474;2023-04-09T09:28:46;19.20;;;10.75;;
50733;SDS011;36701;51.798;19.474;2023-04-09T09:31:14;19.42;;;11.45;;
50733;SDS011;36701;51.798;19.474;2023-04-09T09:33:40;23.38;;;10.82;;
50733;SDS011;36701;51.798;19.474;2023-04-09T09:36:06;20.37;;;10.98;;
50733;SDS011;36701;51.798;19.474;2023-04-09T09:38:51;21.20;;;11.43;;
50733;SDS011;36701;51.798;19.474;2023-04-09T09:41:18;18.60;;;10.43;;
50733;SDS011;36701;51.798;19.474;2023-04-09T09:43:45;19.52;;;10.75;;
50733;SDS011;36701;51.798;19.474;2023-04-09T09:46:18;16.35;;;10.05;;
50733;SDS011;36701;51.798;19.474;2023-04-09T09:48:45;15.00;;;10.68;;
50733;SDS011;36701;51.798;19.474;2023-04-09T09:51:12;18.33;;;11.50;;
50733;SDS011;36701;51.798;19.474;2023-04-09T09:53:39;16.50;;;10.35;;
50733;SDS011;36701;51.798;19.474;2023-04-09T09:56:09;18.33;;;10.63;;
50733;SDS011;36701;51.798;19.474;2023-04-09T09:58:37;20.17;;;10.00;;
50733;SDS011;36701;51.798;19.474;2023-04-09T10:01:09;17.15;;;10.80;;
50733;SDS011;36701;51.798;19.474;2023-04-09T10:03:39;19.73;;;11.23;;
50733;SDS011;36701;51.798;19.474;2023-04-09T10:06:05;16.42;;;9.40;;
50733;SDS011;36701;51.798;19.474;2023-04-09T10:08:32;15.40;;;9.77;;
50733;SDS011;36701;51.798;19.474;2023-04-09T10:11:00;15.75;;;9.30;;
50733;SDS011;36701;51.798;19.474;2023-04-09T10:14:08;14.18;;;9.15;;
50733;SDS011;36701;51.798;19.474;2023-04-09T10:16:16;11.60;;;7.87;;
50733;SDS011;36701;51.798;19.474;2023-04-09T10:18:43;12.88;;;9.80;;
50733;SDS011;36701;51.798;19.474;2023-04-09T10:23:46;18.27;;;10.75;;
50733;SDS011;36701;51.798;19.474;2023-04-09T10:26:13;16.23;;;9.25;;
50733;SDS011;36701;51.798;19.474;2023-04-09T10:28:40;16.92;;;8.98;;
50733;SDS011;36701;51.798;19.474;2023-04-09T10:31:06;23.45;;;10.75;;
50733;SDS011;36701;51.798;19.474;2023-04-09T10:33:35;14.95;;;9.93;;
50733;SDS011;36701;51.798;19.474;2023-04-09T10:36:03;17.67;;;12.32;;
50733;SDS011;36701;51.798;19.474;2023-04-09T10:38:33;20.35;;;11.15;;
50733;SDS011;36701;51.798;19.474;2023-04-09T10:41:07;19.58;;;10.82;;
50733;SDS011;36701;51.798;19.474;2023-04-09T10:43:35;16.15;;;10.15;;
50733;SDS011;36701;51.798;19.474;2023-04-09T10:46:03;18.95;;;10.98;;
50733;SDS011;36701;51.798;19.474;2023-04-09T10:48:33;17.70;;;10.48;;
50733;SDS011;36701;51.798;19.474;2023-04-09T10:51:01;15.73;;;9.25;;
50733;SDS011;36701;51.798;19.474;2023-04-09T10:53:27;16.55;;;10.18;;
50733;SDS011;36701;51.798;19.474;2023-04-09T10:55:54;13.88;;;8.57;;
50733;SDS011;36701;51.798;19.474;2023-04-09T10:58:20;15.50;;;10.05;;
50733;SDS011;36701;51.798;19.474;2023-04-09T11:06:02;13.70;;;9.43;;
50733;SDS011;36701;51.798;19.474;2023-04-09T11:08:31;15.98;;;9.02;;
50733;SDS011;36701;51.798;19.474;2023-04-09T11:10:58;17.70;;;9.73;;
50733;SDS011;36701;51.798;19.474;2023-04-09T11:13:26;15.80;;;9.85;;
50733;SDS011;36701;51.798;19.474;2023-04-09T11:15:54;16.12;;;9.85;;
50733;SDS011;36701;51.798;19.474;2023-04-09T11:18:27;14.98;;;9.63;;
50733;SDS011;36701;51.798;19.474;2023-04-09T11:20:57;13.05;;;9.13;;
50733;SDS011;36701;51.798;19.474;2023-04-09T11:23:24;13.05;;;8.95;;
50733;SDS011;36701;51.798;19.474;2023-04-09T11:25:51;21.95;;;10.40;;
50733;SDS011;36701;51.798;19.474;2023-04-09T11:28:17;15.00;;;10.05;;
50733;SDS011;36701;51.798;19.474;2023-04-09T11:30:44;16.42;;;10.00;;
50733;SDS011;36701;51.798;19.474;2023-04-09T11:33:11;25.02;;;9.65;;
50733;SDS011;36701;51.798;19.474;2023-04-09T11:35:38;12.45;;;8.63;;
50733;SDS011;36701;51.798;19.474;2023-04-09T11:38:05;16.08;;;9.85;;
50733;SDS011;36701;51.798;19.474;2023-04-09T11:40:31;19.42;;;8.65;;
50733;SDS011;36701;51.798;19.474;2023-04-09T11:42:58;16.30;;;8.15;;
50733;SDS011;36701;51.798;19.474;2023-04-09T11:45:27;13.68;;;7.90;;
50733;SDS011;36701;51.798;19.474;2023-04-09T11:47:53;12.18;;;8.38;;
50733;SDS011;36701;51.798;19.474;2023-04-09T11:50:20;14.98;;;9.00;;
50733;SDS011;36701;51.798;19.474;2023-04-09T11:52:46;12.18;;;7.90;;
50733;SDS011;36701;51.798;19.474;2023-04-09T11:55:21;12.35;;;8.57;;
50733;SDS011;36701;51.798;19.474;2023-04-09T11:57:49;11.48;;;8.00;;
50733;SDS011;36701;51.798;19.474;2023-04-09T12:00:16;13.35;;;8.10;;
50733;SDS011;36701;51.798;19.474;2023-04-09T12:02:46;11.82;;;7.93;;
50733;SDS011;36701;51.798;19.474;2023-04-09T12:05:27;11.23;;;7.95;;
50733;SDS011;36701;51.798;19.474;2023-04-09T12:08:11;16.42;;;8.27;;
50733;SDS011;36701;51.798;19.474;2023-04-09T12:10:38;13.62;;;8.32;;
50733;SDS011;36701;51.798;19.474;2023-04-09T12:13:06;12.37;;;8.68;;
50733;SDS011;36701;51.798;19.474;2023-04-09T12:15:34;11.93;;;7.40;;
50733;SDS011;36701;51.798;19.474;2023-04-09T12:18:00;13.45;;;8.60;;
50733;SDS011;36701;51.798;19.474;2023-04-09T12:20:27;12.10;;;7.95;;
50733;SDS011;36701;51.798;19.474;2023-04-09T12:22:54;17.17;;;10.48;;
50733;SDS011;36701;51.798;19.474;2023-04-09T12:25:20;22.23;;;12.02;;
50733;SDS011;36701;51.798;19.474;2023-04-09T12:27:47;16.62;;;10.60;;
50733;SDS011;36701;51.798;19.474;2023-04-09T12:30:13;23.33;;;13.35;;
50733;SDS011;36701;51.798;19.474;2023-04-09T12:35:12;18.35;;;11.60;;
50733;SDS011;36701;51.798;19.474;2023-04-09T12:37:38;18.70;;;11.43;;
50733;SDS011;36701;51.798;19.474;2023-04-09T12:40:05;18.35;;;10.85;;
50733;SDS011;36701;51.798;19.474;2023-04-09T12:42:31;18.40;;;11.07;;
50733;SDS011;36701;51.798;19.474;2023-04-09T12:45:04;20.55;;;10.48;;
50733;SDS011;36701;51.798;19.474;2023-04-09T12:47:31;18.95;;;10.32;;
50733;SDS011;36701;51.798;19.474;2023-04-09T12:49:57;15.45;;;9.70;;
50733;SDS011;36701;51.798;19.474;2023-04-09T12:52:23;19.20;;;11.32;;
50733;SDS011;36701;51.798;19.474;2023-04-09T12:54:50;20.70;;;10.15;;
50733;SDS011;36701;51.798;19.474;2023-04-09T12:57:16;12.68;;;9.63;;
50733;SDS011;36701;51.798;19.474;2023-04-09T12:59:43;20.23;;;11.00;;
50733;SDS011;36701;51.798;19.474;2023-04-09T13:02:09;18.85;;;10.70;;
50733;SDS011;36701;51.798;19.474;2023-04-09T13:04:36;14.00;;;9.43;;
50733;SDS011;36701;51.798;19.474;2023-04-09T13:07:02;16.33;;;10.23;;
50733;SDS011;36701;51.798;19.474;2023-04-09T13:09:28;20.40;;;9.93;;
50733;SDS011;36701;51.798;19.474;2023-04-09T13:11:54;19.50;;;10.15;;
50733;SDS011;36701;51.798;19.474;2023-04-09T13:14:21;15.77;;;9.98;;
50733;SDS011;36701;51.798;19.474;2023-04-09T13:16:47;17.50;;;10.20;;
50733;SDS011;36701;51.798;19.474;2023-04-09T13:19:14;16.35;;;10.00;;
50733;SDS011;36701;51.798;19.474;2023-04-09T13:21:40;14.00;;;9.95;;
50733;SDS011;36701;51.798;19.474;2023-04-09T13:24:07;20.85;;;10.82;;
50733;SDS011;36701;51.798;19.474;2023-04-09T13:26:33;18.00;;;11.07;;
50733;SDS011;36701;51.798;19.474;2023-04-09T13:28:59;17.58;;;10.02;;
50733;SDS011;36701;51.798;19.474;2023-04-09T13:31:26;15.38;;;9.98;;
50733;SDS011;36701;51.798;19.474;2023-04-09T13:33:52;15.18;;;10.30;;
50733;SDS011;36701;51.798;19.474;2023-04-09T13:36:19;23.15;;;13.15;;
50733;SDS011;36701;51.798;19.474;2023-04-09T13:38:46;20.15;;;11.50;;
50733;SDS011;36701;51.798;19.474;2023-04-09T13:41:11;27.95;;;12.50;;
50733;SDS011;36701;51.798;19.474;2023-04-09T13:43:38;19.52;;;11.77;;
50733;SDS011;36701;51.798;19.474;2023-04-09T13:46:04;21.37;;;12.73;;
50733;SDS011;36701;51.798;19.474;2023-04-09T13:48:31;21.90;;;12.05;;
50733;SDS011;36701;51.798;19.474;2023-04-09T13:50:57;15.93;;;10.65;;
50733;SDS011;36701;51.798;19.474;2023-04-09T13:53:24;17.80;;;10.85;;
50733;SDS011;36701;51.798;19.474;2023-04-09T13:55:50;16.95;;;10.57;;
50733;SDS011;36701;51.798;19.474;2023-04-09T13:58:16;15.20;;;9.50;;
50733;SDS011;36701;51.798;19.474;2023-04-09T14:00:42;16.73;;;9.80;;
50733;SDS011;36701;51.798;19.474;2023-04-09T14:03:09;15.85;;;9.95;;
50733;SDS011;36701;51.798;19.474;2023-04-09T14:05:35;18.80;;;11.15;;
50733;SDS011;36701;51.798;19.474;2023-04-09T14:08:02;18.60;;;11.55;;
50733;SDS011;36701;51.798;19.474;2023-04-09T14:10:28;18.40;;;10.70;;
50733;SDS011;36701;51.798;19.474;2023-04-09T14:12:55;18.60;;;10.20;;
50733;SDS011;36701;51.798;19.474;2023-04-09T14:15:21;21.50;;;13.85;;
50733;SDS011;36701;51.798;19.474;2023-04-09T14:17:48;27.00;;;15.23;;
50733;SDS011;36701;51.798;19.474;2023-04-09T14:20:14;27.15;;;16.30;;
50733;SDS011;36701;51.798;19.474;2023-04-09T14:22:40;27.48;;;15.02;;
50733;SDS011;36701;51.798;19.474;2023-04-09T14:25:08;29.00;;;15.07;;
50733;SDS011;36701;51.798;19.474;2023-04-09T14:27:34;26.17;;;14.63;;
50733;SDS011;36701;51.798;19.474;2023-04-09T14:30:00;26.85;;;14.55;;
50733;SDS011;36701;51.798;19.474;2023-04-09T14:32:28;25.25;;;15.30;;
50733;SDS011;36701;51.798;19.474;2023-04-09T14:34:54;26.25;;;14.75;;
50733;SDS011;36701;51.798;19.474;2023-04-09T14:37:21;29.77;;;16.62;;
50733;SDS011;36701;51.798;19.474;2023-04-09T14:39:47;27.40;;;15.57;;
50733;SDS011;36701;51.798;19.474;2023-04-09T14:42:13;26.48;;;16.17;;
50733;SDS011;36701;51.798;19.474;2023-04-09T14:44:46;33.13;;;15.38;;
50733;SDS011;36701;51.798;19.474;2023-04-09T14:47:12;25.42;;;14.40;;
50733;SDS011;36701;51.798;19.474;2023-04-09T14:49:38;25.55;;;15.70;;
50733;SDS011;36701;51.798;19.474;2023-04-09T14:52:04;24.25;;;15.88;;
50733;SDS011;36701;51.798;19.474;2023-04-09T14:54:31;27.95;;;15.40;;
50733;SDS011;36701;51.798;19.474;2023-04-09T14:56:58;25.37;;;15.82;;
50733;SDS011;36701;51.798;19.474;2023-04-09T14:59:24;28.40;;;16.08;;
50733;SDS011;36701;51.798;19.474;2023-04-09T15:01:51;23.83;;;13.85;;
50733;SDS011;36701;51.798;19.474;2023-04-09T15:04:17;24.10;;;14.93;;
50733;SDS011;36701;51.798;19.474;2023-04-09T15:06:43;26.10;;;15.90;;
50733;SDS011;36701;51.798;19.474;2023-04-09T15:09:10;21.65;;;13.30;;
50733;SDS011;36701;51.798;19.474;2023-04-09T15:11:37;24.15;;;14.10;;
50733;SDS011;36701;51.798;19.474;2023-04-09T15:14:02;28.48;;;14.10;;
50733;SDS011;36701;51.798;19.474;2023-04-09T15:16:29;27.67;;;16.05;;
50733;SDS011;36701;51.798;19.474;2023-04-09T15:18:57;28.83;;;15.73;;
50733;SDS011;36701;51.798;19.474;2023-04-09T15:21:25;24.12;;;14.75;;
50733;SDS011;36701;51.798;19.474;2023-04-09T15:23:52;33.88;;;17.05;;
50733;SDS011;36701;51.798;19.474;2023-04-09T15:26:18;37.05;;;17.25;;
50733;SDS011;36701;51.798;19.474;2023-04-09T15:28:45;28.92;;;14.82;;
50733;SDS011;36701;51.798;19.474;2023-04-09T15:31:11;26.87;;;14.95;;
50733;SDS011;36701;51.798;19.474;2023-04-09T15:33:39;33.63;;;16.40;;
50733;SDS011;36701;51.798;19.474;2023-04-09T15:36:07;24.77;;;14.15;;
50733;SDS011;36701;51.798;19.474;2023-04-09T15:38:36;25.50;;;14.82;;
50733;SDS011;36701;51.798;19.474;2023-04-09T15:41:02;26.62;;;14.68;;
50733;SDS011;36701;51.798;19.474;2023-04-09T15:43:29;31.62;;;14.48;;
50733;SDS011;36701;51.798;19.474;2023-04-09T15:45:56;26.92;;;15.40;;
50733;SDS011;36701;51.798;19.474;2023-04-09T15:48:22;25.88;;;15.73;;
50733;SDS011;36701;51.798;19.474;2023-04-09T15:50:52;25.73;;;15.55;;
50733;SDS011;36701;51.798;19.474;2023-04-09T15:53:18;27.10;;;15.63;;
50733;SDS011;36701;51.798;19.474;2023-04-09T15:55:48;28.27;;;15.93;;
50733;SDS011;36701;51.798;19.474;2023-04-09T15:58:14;26.30;;;15.80;;
50733;SDS011;36701;51.798;19.474;2023-04-09T16:00:41;25.90;;;15.80;;
50733;SDS011;36701;51.798;19.474;2023-04-09T16:03:07;30.62;;;17.02;;
50733;SDS011;36701;51.798;19.474;2023-04-09T16:05:33;27.52;;;16.17;;
50733;SDS011;36701;51.798;19.474;2023-04-09T16:08:00;33.28;;;17.23;;
50733;SDS011;36701;51.798;19.474;2023-04-09T16:10:27;28.85;;;17.23;;
50733;SDS011;36701;51.798;19.474;2023-04-09T16:12:53;26.80;;;16.10;;
50733;SDS011;36701;51.798;19.474;2023-04-09T16:15:19;24.75;;;16.12;;
50733;SDS011;36701;51.798;19.474;2023-04-09T16:17:45;30.50;;;16.45;;
50733;SDS011;36701;51.798;19.474;2023-04-09T16:20:12;27.33;;;15.82;;
50733;SDS011;36701;51.798;19.474;2023-04-09T16:22:38;30.05;;;16.98;;
50733;SDS011;36701;51.798;19.474;2023-04-09T16:25:04;32.95;;;18.83;;